sensor_id;sensor_type;location;lat;lon;timestamp;noise_LAeq;noise_LA_min;noise_LA_max;noise_LA01;noise_LA95
82130;Laerm;75912;50.450;9.816;2024-02-26T00:01:08;53.03;37.59;69.55;;
82130;Laerm;75912;50.450;9.816;2024-02-26T00:03:33;38.77;37.63;41.54;;
82130;Laerm;75912;50.450;9.816;2024-02-26T00:06:01;48.21;37.55;64.91;;
82130;Laerm;75912;50.450;9.816;2024-02-26T00:08:26;38.79;37.67;43.18;;
82130;Laerm;75912;50.450;9.816;2024-02-26T00:10:51;38.63;37.62;40.37;;
82130;Laerm;75912;50.450;9.816;2024-02-26T00:13:17;38.70;37.61;39.97;;
82130;Laerm;75912;50.450;9.816;2024-02-26T00:15:42;38.67;37.63;39.81;;
82130;Laerm;75912;50.450;9.816;2024-02-26T00:18:10;38.79;37.67;40.56;;
82130;Laerm;75912;50.450;9.816;2024-02-26T00:20:35;50.76;37.64;67.85;;
82130;Laerm;75912;50.450;9.816;2024-02-26T00:23:01;52.46;37.60;70.76;;
82130;Laerm;75912;50.450;9.816;2024-02-26T00:25:26;38.92;37.46;41.10;;
82130;Laerm;75912;50.450;9.816;2024-02-26T00:27:51;55.85;37.84;73.67;;
82130;Laerm;75912;50.450;9.816;2024-02-26T00:30:17;38.67;37.46;40.01;;
82130;Laerm;75912;50.450;9.816;2024-02-26T00:32:42;49.88;37.77;68.07;;
82130;Laerm;75912;50.450;9.816;2024-02-26T00:35:08;55.98;37.86;71.35;;
82130;Laerm;75912;50.450;9.816;2024-02-26T00:37:34;39.04;37.70;44.42;;
82130;Laerm;75912;50.450;9.816;2024-02-26T00:40:00;38.77;37.71;40.35;;
82130;Laerm;75912;50.450;9.816;2024-02-26T00:42:25;39.03;37.59;40.51;;
82130;Laerm;75912;50.450;9.816;2024-02-26T00:44:51;53.38;37.74;69.57;;
82130;Laerm;75912;50.450;9.816;2024-02-26T00:47:16;55.98;37.80;74.24;;
82130;Laerm;75912;50.450;9.816;2024-02-26T00:49:41;49.38;37.63;68.24;;
82130;Laerm;75912;50.450;9.816;2024-02-26T00:52:06;38.81;37.67;40.18;;
82130;Laerm;75912;50.450;9.816;2024-02-26T00:54:32;46.23;37.43;62.33;;
82130;Laerm;75912;50.450;9.816;2024-02-26T00:56:58;47.32;37.68;65.84;;
82130;Laerm;75912;50.450;9.816;2024-02-26T00:59:23;52.37;37.79;67.03;;
82130;Laerm;75912;50.450;9.816;2024-02-26T01:01:48;39.03;37.70;43.68;;
82130;Laerm;75912;50.450;9.816;2024-02-26T01:04:13;52.52;37.67;72.79;;
82130;Laerm;75912;50.450;9.816;2024-02-26T01:06:39;38.92;37.72;40.56;;
82130;Laerm;75912;50.450;9.816;2024-02-26T01:09:04;38.98;37.79;41.80;;
82130;Laerm;75912;50.450;9.816;2024-02-26T01:11:29;54.75;37.46;73.53;;
82130;Laerm;75912;50.450;9.816;2024-02-26T01:13:55;49.35;37.61;67.83;;
82130;Laerm;75912;50.450;9.816;2024-02-26T01:16:21;49.98;37.94;66.70;;
82130;Laerm;75912;50.450;9.816;2024-02-26T01:18:46;39.01;37.20;41.53;;
82130;Laerm;75912;50.450;9.816;2024-02-26T01:21:12;53.07;37.86;69.95;;
82130;Laerm;75912;50.450;9.816;2024-02-26T01:23:37;58.04;38.05;74.54;;
82130;Laerm;75912;50.450;9.816;2024-02-26T01:26:02;50.48;37.48;68.83;;
82130;Laerm;75912;50.450;9.816;2024-02-26T01:28:28;58.46;38.06;75.31;;
82130;Laerm;75912;50.450;9.816;2024-02-26T01:30:54;38.83;37.72;40.08;;
82130;Laerm;75912;50.450;9.816;2024-02-26T01:33:19;56.26;37.81;76.80;;
82130;Laerm;75912;50.450;9.816;2024-02-26T01:35:44;38.91;37.71;40.34;;
82130;Laerm;75912;50.450;9.816;2024-02-26T01:38:11;53.50;37.74;73.82;;
82130;Laerm;75912;50.450;9.816;2024-02-26T01:40:37;39.05;37.62;40.75;;
82130;Laerm;75912;50.450;9.816;2024-02-26T01:43:02;59.93;37.19;72.75;;
82130;Laerm;75912;50.450;9.816;2024-02-26T01:45:27;49.30;37.66;67.69;;
82130;Laerm;75912;50.450;9.816;2024-02-26T01:47:53;56.47;38.24;72.48;;
82130;Laerm;75912;50.450;9.816;2024-02-26T01:50:19;54.37;37.92;72.96;;
82130;Laerm;75912;50.450;9.816;2024-02-26T01:52:45;56.55;37.69;75.97;;
82130;Laerm;75912;50.450;9.816;2024-02-26T01:55:12;52.91;38.05;68.92;;
82130;Laerm;75912;50.450;9.816;2024-02-26T01:57:39;39.09;38.00;40.37;;
82130;Laerm;75912;50.450;9.816;2024-02-26T02:00:05;39.11;37.80;40.74;;
82130;Laerm;75912;50.450;9.816;2024-02-26T02:02:32;39.15;37.80;42.06;;
82130;Laerm;75912;50.450;9.816;2024-02-26T02:04:57;38.80;37.71;42.06;;
82130;Laerm;75912;50.450;9.816;2024-02-26T02:07:23;56.47;37.77;77.34;;
82130;Laerm;75912;50.450;9.816;2024-02-26T02:09:50;50.15;37.61;66.82;;
82130;Laerm;75912;50.450;9.816;2024-02-26T02:12:15;53.56;37.65;72.33;;
82130;Laerm;75912;50.450;9.816;2024-02-26T02:14:40;53.11;37.79;71.98;;
82130;Laerm;75912;50.450;9.816;2024-02-26T02:17:06;48.51;37.89;66.80;;
82130;Laerm;75912;50.450;9.816;2024-02-26T02:19:32;57.89;37.90;79.17;;
82130;Laerm;75912;50.450;9.816;2024-02-26T02:21:57;53.39;38.48;71.60;;
82130;Laerm;75912;50.450;9.816;2024-02-26T02:24:22;53.58;37.47;71.88;;
82130;Laerm;75912;50.450;9.816;2024-02-26T02:26:47;47.16;37.56;63.98;;
82130;Laerm;75912;50.450;9.816;2024-02-26T02:29:13;57.14;37.83;74.10;;
82130;Laerm;75912;50.450;9.816;2024-02-26T02:31:39;57.27;38.02;71.13;;
82130;Laerm;75912;50.450;9.816;2024-02-26T02:34:05;54.94;37.68;71.73;;
82130;Laerm;75912;50.450;9.816;2024-02-26T02:36:30;56.76;37.64;70.33;;
82130;Laerm;75912;50.450;9.816;2024-02-26T02:38:55;52.08;37.45;70.83;;
82130;Laerm;75912;50.450;9.816;2024-02-26T02:41:21;48.61;37.54;68.29;;
82130;Laerm;75912;50.450;9.816;2024-02-26T02:43:46;58.03;38.05;73.06;;
82130;Laerm;75912;50.450;9.816;2024-02-26T02:46:12;55.36;37.37;71.52;;
82130;Laerm;75912;50.450;9.816;2024-02-26T02:48:37;45.93;37.35;62.77;;
82130;Laerm;75912;50.450;9.816;2024-02-26T02:51:03;54.95;37.30;71.83;;
82130;Laerm;75912;50.450;9.816;2024-02-26T02:53:28;57.82;37.90;74.44;;
82130;Laerm;75912;50.450;9.816;2024-02-26T02:55:54;51.48;37.42;70.28;;
82130;Laerm;75912;50.450;9.816;2024-02-26T02:58:19;51.82;37.65;68.25;;
82130;Laerm;75912;50.450;9.816;2024-02-26T03:00:44;58.15;37.54;74.21;;
82130;Laerm;75912;50.450;9.816;2024-02-26T03:03:10;60.98;37.64;80.19;;
82130;Laerm;75912;50.450;9.816;2024-02-26T03:05:35;53.70;37.32;68.98;;
82130;Laerm;75912;50.450;9.816;2024-02-26T03:08:00;55.49;37.70;68.89;;
82130;Laerm;75912;50.450;9.816;2024-02-26T03:10:26;53.02;37.66;69.91;;
82130;Laerm;75912;50.450;9.816;2024-02-26T03:12:51;49.94;37.49;67.90;;
82130;Laerm;75912;50.450;9.816;2024-02-26T03:15:16;58.06;37.69;76.21;;
82130;Laerm;75912;50.450;9.816;2024-02-26T03:17:42;52.13;37.51;66.82;;
82130;Laerm;75912;50.450;9.816;2024-02-26T03:20:07;52.24;37.63;70.87;;
82130;Laerm;75912;50.450;9.816;2024-02-26T03:22:34;59.54;37.29;77.34;;
82130;Laerm;75912;50.450;9.816;2024-02-26T03:24:59;38.55;37.17;40.04;;
82130;Laerm;75912;50.450;9.816;2024-02-26T03:27:25;54.18;37.40;68.57;;
82130;Laerm;75912;50.450;9.816;2024-02-26T03:29:50;57.87;37.85;69.86;;
82130;Laerm;75912;50.450;9.816;2024-02-26T03:32:16;60.44;38.04;74.68;;
82130;Laerm;75912;50.450;9.816;2024-02-26T03:34:41;58.19;37.93;73.01;;
82130;Laerm;75912;50.450;9.816;2024-02-26T03:37:06;54.49;37.72;69.53;;
82130;Laerm;75912;50.450;9.816;2024-02-26T03:39:34;57.02;37.36;72.77;;
82130;Laerm;75912;50.450;9.816;2024-02-26T03:41:59;59.44;37.72;74.35;;
82130;Laerm;75912;50.450;9.816;2024-02-26T03:44:24;55.96;37.31;73.79;;
82130;Laerm;75912;50.450;9.816;2024-02-26T03:46:50;55.82;38.14;72.02;;
82130;Laerm;75912;50.450;9.816;2024-02-26T03:49:15;60.52;38.82;70.67;;
82130;Laerm;75912;50.450;9.816;2024-02-26T03:51:44;54.51;37.35;70.37;;
82130;Laerm;75912;50.450;9.816;2024-02-26T03:54:09;45.71;37.61;64.45;;
82130;Laerm;75912;50.450;9.816;2024-02-26T03:56:35;58.40;38.71;71.72;;
82130;Laerm;75912;50.450;9.816;2024-02-26T03:59:00;57.92;37.69;73.55;;
82130;Laerm;75912;50.450;9.816;2024-02-26T04:01:27;49.48;37.38;67.67;;
82130;Laerm;75912;50.450;9.816;2024-02-26T04:03:53;60.41;38.15;73.29;;
82130;Laerm;75912;50.450;9.816;2024-02-26T04:06:18;60.31;38.16;74.59;;
82130;Laerm;75912;50.450;9.816;2024-02-26T04:08:46;50.97;37.94;67.25;;
82130;Laerm;75912;50.450;9.816;2024-02-26T04:11:11;60.25;37.64;75.10;;
82130;Laerm;75912;50.450;9.816;2024-02-26T04:13:37;51.32;37.86;67.50;;
82130;Laerm;75912;50.450;9.816;2024-02-26T04:16:05;56.95;38.12;71.04;;
82130;Laerm;75912;50.450;9.816;2024-02-26T04:18:31;59.83;37.66;75.83;;
82130;Laerm;75912;50.450;9.816;2024-02-26T04:20:57;56.67;37.67;71.30;;
82130;Laerm;75912;50.450;9.816;2024-02-26T04:23:22;60.38;38.33;73.49;;
82130;Laerm;75912;50.450;9.816;2024-02-26T04:25:48;61.22;38.07;74.84;;
82130;Laerm;75912;50.450;9.816;2024-02-26T04:28:14;58.78;38.13;71.53;;
82130;Laerm;75912;50.450;9.816;2024-02-26T04:30:39;59.30;42.50;70.70;;
82130;Laerm;75912;50.450;9.816;2024-02-26T04:33:04;63.14;41.01;75.84;;
82130;Laerm;75912;50.450;9.816;2024-02-26T04:35:30;53.88;37.74;67.06;;
82130;Laerm;75912;50.450;9.816;2024-02-26T04:37:55;59.46;38.08;73.31;;
82130;Laerm;75912;50.450;9.816;2024-02-26T04:40:21;56.11;38.32;72.96;;
82130;Laerm;75912;50.450;9.816;2024-02-26T04:42:46;59.97;39.18;72.95;;
82130;Laerm;75912;50.450;9.816;2024-02-26T04:45:11;55.88;37.93;71.72;;
82130;Laerm;75912;50.450;9.816;2024-02-26T04:47:37;61.07;38.05;74.99;;
82130;Laerm;75912;50.450;9.816;2024-02-26T04:50:02;62.22;38.42;76.78;;
82130;Laerm;75912;50.450;9.816;2024-02-26T04:52:28;63.63;38.81;76.52;;
82130;Laerm;75912;50.450;9.816;2024-02-26T04:54:53;60.38;40.47;71.74;;
82130;Laerm;75912;50.450;9.816;2024-02-26T04:57:19;60.18;39.46;72.14;;
82130;Laerm;75912;50.450;9.816;2024-02-26T04:59:44;54.23;38.04;69.27;;
82130;Laerm;75912;50.450;9.816;2024-02-26T05:02:11;60.51;38.32;74.11;;
82130;Laerm;75912;50.450;9.816;2024-02-26T05:04:36;60.03;38.26;71.97;;
82130;Laerm;75912;50.450;9.816;2024-02-26T05:07:01;58.49;38.23;71.80;;
82130;Laerm;75912;50.450;9.816;2024-02-26T05:09:27;58.22;37.99;73.81;;
82130;Laerm;75912;50.450;9.816;2024-02-26T05:11:52;58.39;38.91;70.37;;
82130;Laerm;75912;50.450;9.816;2024-02-26T05:14:17;57.16;38.03;69.00;;
82130;Laerm;75912;50.450;9.816;2024-02-26T05:16:43;56.23;41.56;69.47;;
82130;Laerm;75912;50.450;9.816;2024-02-26T05:19:08;61.57;39.10;73.65;;
82130;Laerm;75912;50.450;9.816;2024-02-26T05:21:33;62.23;38.73;73.71;;
82130;Laerm;75912;50.450;9.816;2024-02-26T05:23:59;61.49;38.59;74.00;;
82130;Laerm;75912;50.450;9.816;2024-02-26T05:26:27;62.67;39.21;76.13;;
82130;Laerm;75912;50.450;9.816;2024-02-26T05:28:53;60.56;38.72;72.24;;
82130;Laerm;75912;50.450;9.816;2024-02-26T05:31:18;60.96;39.19;71.94;;
82130;Laerm;75912;50.450;9.816;2024-02-26T05:33:43;63.32;39.70;74.83;;
82130;Laerm;75912;50.450;9.816;2024-02-26T05:36:09;61.28;39.62;71.61;;
82130;Laerm;75912;50.450;9.816;2024-02-26T05:38:40;63.37;38.62;77.94;;
82130;Laerm;75912;50.450;9.816;2024-02-26T05:41:05;57.10;38.66;70.56;;
82130;Laerm;75912;50.450;9.816;2024-02-26T05:43:31;63.32;43.45;77.58;;
82130;Laerm;75912;50.450;9.816;2024-02-26T05:45:59;59.00;40.23;69.97;;
82130;Laerm;75912;50.450;9.816;2024-02-26T05:48:24;63.22;39.14;73.94;;
82130;Laerm;75912;50.450;9.816;2024-02-26T05:50:49;61.98;39.48;72.98;;
82130;Laerm;75912;50.450;9.816;2024-02-26T05:53:15;60.75;40.07;74.18;;
82130;Laerm;75912;50.450;9.816;2024-02-26T05:55:40;61.87;39.76;73.33;;
82130;Laerm;75912;50.450;9.816;2024-02-26T05:58:05;62.45;39.97;76.35;;
82130;Laerm;75912;50.450;9.816;2024-02-26T06:00:31;63.13;40.13;76.30;;
82130;Laerm;75912;50.450;9.816;2024-02-26T06:02:56;59.71;40.17;72.57;;
82130;Laerm;75912;50.450;9.816;2024-02-26T06:05:22;61.40;39.40;77.26;;
82130;Laerm;75912;50.450;9.816;2024-02-26T06:07:47;60.99;39.79;74.57;;
82130;Laerm;75912;50.450;9.816;2024-02-26T06:10:12;60.33;38.44;73.06;;
82130;Laerm;75912;50.450;9.816;2024-02-26T06:12:39;60.09;38.62;71.69;;
82130;Laerm;75912;50.450;9.816;2024-02-26T06:15:04;58.80;40.17;70.70;;
82130;Laerm;75912;50.450;9.816;2024-02-26T06:17:29;63.11;41.26;77.79;;
82130;Laerm;75912;50.450;9.816;2024-02-26T06:19:55;61.33;40.89;72.24;;
82130;Laerm;75912;50.450;9.816;2024-02-26T06:22:20;60.35;39.66;72.54;;
82130;Laerm;75912;50.450;9.816;2024-02-26T06:24:45;64.72;40.92;78.49;;
82130;Laerm;75912;50.450;9.816;2024-02-26T06:27:11;61.67;40.16;73.36;;
82130;Laerm;75912;50.450;9.816;2024-02-26T06:29:36;61.68;39.28;74.97;;
82130;Laerm;75912;50.450;9.816;2024-02-26T06:32:01;61.63;40.91;74.01;;
82130;Laerm;75912;50.450;9.816;2024-02-26T06:34:27;62.50;41.32;73.62;;
82130;Laerm;75912;50.450;9.816;2024-02-26T06:36:52;61.79;39.27;72.62;;
82130;Laerm;75912;50.450;9.816;2024-02-26T06:39:17;63.51;42.24;73.53;;
82130;Laerm;75912;50.450;9.816;2024-02-26T06:41:43;62.54;39.81;73.63;;
82130;Laerm;75912;50.450;9.816;2024-02-26T06:44:08;61.25;42.08;71.59;;
82130;Laerm;75912;50.450;9.816;2024-02-26T06:46:33;63.02;38.54;79.33;;
82130;Laerm;75912;50.450;9.816;2024-02-26T06:48:58;62.84;40.78;73.60;;
82130;Laerm;75912;50.450;9.816;2024-02-26T06:51:24;61.55;39.85;72.94;;
82130;Laerm;75912;50.450;9.816;2024-02-26T06:53:49;61.33;40.02;72.28;;
82130;Laerm;75912;50.450;9.816;2024-02-26T06:56:14;64.70;39.56;77.99;;
82130;Laerm;75912;50.450;9.816;2024-02-26T06:58:40;61.11;38.37;74.10;;
82130;Laerm;75912;50.450;9.816;2024-02-26T07:01:05;61.93;37.96;75.44;;
82130;Laerm;75912;50.450;9.816;2024-02-26T07:03:30;62.51;42.30;73.32;;
82130;Laerm;75912;50.450;9.816;2024-02-26T07:05:56;58.83;38.56;71.74;;
82130;Laerm;75912;50.450;9.816;2024-02-26T07:08:21;63.51;39.58;74.28;;
82130;Laerm;75912;50.450;9.816;2024-02-26T07:10:47;61.72;38.93;72.54;;
82130;Laerm;75912;50.450;9.816;2024-02-26T07:13:12;62.33;38.86;77.54;;
82130;Laerm;75912;50.450;9.816;2024-02-26T07:15:37;59.29;38.89;72.15;;
82130;Laerm;75912;50.450;9.816;2024-02-26T07:18:03;62.55;41.09;74.39;;
82130;Laerm;75912;50.450;9.816;2024-02-26T07:20:31;60.47;40.97;72.06;;
82130;Laerm;75912;50.450;9.816;2024-02-26T07:22:57;62.69;44.98;74.05;;
82130;Laerm;75912;50.450;9.816;2024-02-26T07:25:22;58.75;40.80;71.33;;
82130;Laerm;75912;50.450;9.816;2024-02-26T07:27:48;61.76;40.87;74.82;;
82130;Laerm;75912;50.450;9.816;2024-02-26T07:30:13;63.00;41.94;73.99;;
82130;Laerm;75912;50.450;9.816;2024-02-26T07:32:38;59.64;40.35;71.56;;
82130;Laerm;75912;50.450;9.816;2024-02-26T07:35:04;60.76;41.04;73.79;;
82130;Laerm;75912;50.450;9.816;2024-02-26T07:37:30;63.08;39.06;73.31;;
82130;Laerm;75912;50.450;9.816;2024-02-26T07:39:55;58.82;38.24;72.09;;
82130;Laerm;75912;50.450;9.816;2024-02-26T07:42:20;56.88;38.89;70.30;;
82130;Laerm;75912;50.450;9.816;2024-02-26T07:44:46;59.88;39.21;72.18;;
82130;Laerm;75912;50.450;9.816;2024-02-26T07:47:11;61.00;41.05;75.49;;
82130;Laerm;75912;50.450;9.816;2024-02-26T07:49:36;62.33;47.88;73.26;;
82130;Laerm;75912;50.450;9.816;2024-02-26T07:52:02;58.43;38.17;71.17;;
82130;Laerm;75912;50.450;9.816;2024-02-26T07:54:27;59.65;37.90;70.93;;
82130;Laerm;75912;50.450;9.816;2024-02-26T07:56:52;62.71;42.29;74.76;;
82130;Laerm;75912;50.450;9.816;2024-02-26T07:59:18;60.46;39.10;73.34;;
82130;Laerm;75912;50.450;9.816;2024-02-26T08:01:43;59.19;39.22;71.85;;
82130;Laerm;75912;50.450;9.816;2024-02-26T08:04:08;58.50;39.05;70.85;;
82130;Laerm;75912;50.450;9.816;2024-02-26T08:06:34;58.02;38.76;69.45;;
82130;Laerm;75912;50.450;9.816;2024-02-26T08:08:59;61.52;38.61;73.39;;
82130;Laerm;75912;50.450;9.816;2024-02-26T08:11:24;61.34;40.44;73.16;;
82130;Laerm;75912;50.450;9.816;2024-02-26T08:13:50;62.40;39.26;75.91;;
82130;Laerm;75912;50.450;9.816;2024-02-26T08:16:15;62.10;40.32;74.08;;
82130;Laerm;75912;50.450;9.816;2024-02-26T08:18:40;58.41;39.35;75.32;;
82130;Laerm;75912;50.450;9.816;2024-02-26T08:21:06;62.98;43.54;73.13;;
82130;Laerm;75912;50.450;9.816;2024-02-26T08:23:31;59.20;39.03;72.13;;
82130;Laerm;75912;50.450;9.816;2024-02-26T08:25:56;63.07;40.88;75.84;;
82130;Laerm;75912;50.450;9.816;2024-02-26T08:28:22;59.46;41.58;71.33;;
82130;Laerm;75912;50.450;9.816;2024-02-26T08:30:47;59.76;40.62;71.93;;
82130;Laerm;75912;50.450;9.816;2024-02-26T08:33:12;60.52;37.95;73.91;;
82130;Laerm;75912;50.450;9.816;2024-02-26T08:35:38;58.98;38.14;78.20;;
82130;Laerm;75912;50.450;9.816;2024-02-26T08:38:04;57.83;38.84;69.66;;
82130;Laerm;75912;50.450;9.816;2024-02-26T08:40:30;58.74;38.86;71.31;;
82130;Laerm;75912;50.450;9.816;2024-02-26T08:42:55;58.29;37.57;71.58;;
82130;Laerm;75912;50.450;9.816;2024-02-26T08:45:21;62.68;41.73;75.72;;
82130;Laerm;75912;50.450;9.816;2024-02-26T08:47:46;58.75;39.79;71.95;;
82130;Laerm;75912;50.450;9.816;2024-02-26T08:50:11;59.96;41.18;73.59;;
82130;Laerm;75912;50.450;9.816;2024-02-26T08:52:37;61.81;39.50;73.11;;
82130;Laerm;75912;50.450;9.816;2024-02-26T08:55:03;59.35;41.02;73.67;;
82130;Laerm;75912;50.450;9.816;2024-02-26T08:57:31;61.63;40.48;76.61;;
82130;Laerm;75912;50.450;9.816;2024-02-26T08:59:58;61.38;38.95;76.25;;
82130;Laerm;75912;50.450;9.816;2024-02-26T09:02:25;61.27;40.34;73.63;;
82130;Laerm;75912;50.450;9.816;2024-02-26T09:04:50;61.09;39.75;72.90;;
82130;Laerm;75912;50.450;9.816;2024-02-26T09:07:18;58.72;38.76;72.32;;
82130;Laerm;75912;50.450;9.816;2024-02-26T09:09:44;57.82;39.04;71.78;;
82130;Laerm;75912;50.450;9.816;2024-02-26T09:12:09;62.81;43.76;74.51;;
82130;Laerm;75912;50.450;9.816;2024-02-26T09:14:34;59.20;38.87;73.52;;
82130;Laerm;75912;50.450;9.816;2024-02-26T09:16:59;59.44;39.35;72.62;;
82130;Laerm;75912;50.450;9.816;2024-02-26T09:19:25;59.13;38.11;74.31;;
82130;Laerm;75912;50.450;9.816;2024-02-26T09:21:52;60.35;39.38;75.04;;
82130;Laerm;75912;50.450;9.816;2024-02-26T09:24:19;57.64;37.94;72.03;;
82130;Laerm;75912;50.450;9.816;2024-02-26T09:26:44;57.73;38.54;71.43;;
82130;Laerm;75912;50.450;9.816;2024-02-26T09:29:10;60.74;38.41;74.53;;
82130;Laerm;75912;50.450;9.816;2024-02-26T09:31:35;62.23;39.03;79.05;;
82130;Laerm;75912;50.450;9.816;2024-02-26T09:34:01;62.03;40.82;77.23;;
82130;Laerm;75912;50.450;9.816;2024-02-26T09:36:26;56.09;38.22;73.87;;
82130;Laerm;75912;50.450;9.816;2024-02-26T09:38:51;62.78;38.52;76.43;;
82130;Laerm;75912;50.450;9.816;2024-02-26T09:41:17;55.88;38.22;70.55;;
82130;Laerm;75912;50.450;9.816;2024-02-26T09:43:43;63.39;40.71;74.67;;
82130;Laerm;75912;50.450;9.816;2024-02-26T09:46:10;63.12;42.37;75.72;;
82130;Laerm;75912;50.450;9.816;2024-02-26T09:48:35;59.06;39.30;71.48;;
82130;Laerm;75912;50.450;9.816;2024-02-26T09:51:02;63.28;40.01;80.52;;
82130;Laerm;75912;50.450;9.816;2024-02-26T09:53:27;60.72;38.66;72.05;;
82130;Laerm;75912;50.450;9.816;2024-02-26T09:55:54;58.19;39.28;70.95;;
82130;Laerm;75912;50.450;9.816;2024-02-26T09:58:19;52.74;37.91;64.67;;
82130;Laerm;75912;50.450;9.816;2024-02-26T10:00:46;59.10;40.08;71.19;;
82130;Laerm;75912;50.450;9.816;2024-02-26T10:03:16;59.16;38.22;72.12;;
82130;Laerm;75912;50.450;9.816;2024-02-26T10:05:46;60.47;40.19;71.03;;
82130;Laerm;75912;50.450;9.816;2024-02-26T10:08:13;61.85;40.50;72.19;;
82130;Laerm;75912;50.450;9.816;2024-02-26T10:10:39;64.00;42.29;77.52;;
82130;Laerm;75912;50.450;9.816;2024-02-26T10:13:04;58.22;38.61;71.04;;
82130;Laerm;75912;50.450;9.816;2024-02-26T10:15:35;60.64;39.69;74.40;;
82130;Laerm;75912;50.450;9.816;2024-02-26T10:18:03;59.27;38.42;70.51;;
82130;Laerm;75912;50.450;9.816;2024-02-26T10:20:28;61.94;38.99;77.64;;
82130;Laerm;75912;50.450;9.816;2024-02-26T10:22:56;59.43;40.85;72.76;;
82130;Laerm;75912;50.450;9.816;2024-02-26T10:25:22;58.94;39.83;70.41;;
82130;Laerm;75912;50.450;9.816;2024-02-26T10:27:47;61.40;39.74;76.69;;
82130;Laerm;75912;50.450;9.816;2024-02-26T10:30:20;61.41;41.03;74.15;;
82130;Laerm;75912;50.450;9.816;2024-02-26T10:32:49;62.05;43.22;74.34;;
82130;Laerm;75912;50.450;9.816;2024-02-26T10:35:15;61.55;41.29;73.36;;
82130;Laerm;75912;50.450;9.816;2024-02-26T10:37:41;60.90;39.48;72.49;;
82130;Laerm;75912;50.450;9.816;2024-02-26T10:40:09;62.64;39.71;77.22;;
82130;Laerm;75912;50.450;9.816;2024-02-26T10:42:35;59.19;38.61;73.15;;
82130;Laerm;75912;50.450;9.816;2024-02-26T10:45:01;60.70;38.92;73.00;;
82130;Laerm;75912;50.450;9.816;2024-02-26T10:47:27;60.63;38.47;72.65;;
82130;Laerm;75912;50.450;9.816;2024-02-26T10:49:53;58.15;37.88;71.27;;
82130;Laerm;75912;50.450;9.816;2024-02-26T10:52:18;59.25;39.32;71.94;;
82130;Laerm;75912;50.450;9.816;2024-02-26T10:54:44;62.64;39.94;74.63;;
82130;Laerm;75912;50.450;9.816;2024-02-26T10:57:12;59.69;39.05;74.84;;
82130;Laerm;75912;50.450;9.816;2024-02-26T10:59:38;62.42;39.48;79.46;;
82130;Laerm;75912;50.450;9.816;2024-02-26T11:02:04;55.76;38.44;69.86;;
82130;Laerm;75912;50.450;9.816;2024-02-26T11:04:32;63.57;41.83;74.16;;
82130;Laerm;75912;50.450;9.816;2024-02-26T11:06:58;62.39;41.35;75.68;;
82130;Laerm;75912;50.450;9.816;2024-02-26T11:09:24;61.15;39.05;75.43;;
82130;Laerm;75912;50.450;9.816;2024-02-26T11:11:50;62.12;40.62;76.39;;
82130;Laerm;75912;50.450;9.816;2024-02-26T11:14:19;59.55;38.93;72.44;;
82130;Laerm;75912;50.450;9.816;2024-02-26T11:16:45;61.60;39.13;72.73;;
82130;Laerm;75912;50.450;9.816;2024-02-26T11:19:10;62.97;39.84;75.40;;
82130;Laerm;75912;50.450;9.816;2024-02-26T11:21:37;60.57;38.54;74.59;;
82130;Laerm;75912;50.450;9.816;2024-02-26T11:24:11;58.28;39.10;72.47;;
82130;Laerm;75912;50.450;9.816;2024-02-26T11:26:38;61.82;38.61;74.01;;
82130;Laerm;75912;50.450;9.816;2024-02-26T11:29:05;59.09;39.53;70.29;;
82130;Laerm;75912;50.450;9.816;2024-02-26T11:31:33;62.27;38.43;75.00;;
82130;Laerm;75912;50.450;9.816;2024-02-26T11:33:58;61.19;38.47;71.88;;
82130;Laerm;75912;50.450;9.816;2024-02-26T11:36:24;58.01;38.01;71.56;;
82130;Laerm;75912;50.450;9.816;2024-02-26T11:38:49;60.02;37.62;75.31;;
82130;Laerm;75912;50.450;9.816;2024-02-26T11:41:17;59.01;38.11;73.50;;
82130;Laerm;75912;50.450;9.816;2024-02-26T11:43:49;61.72;37.63;77.45;;
82130;Laerm;75912;50.450;9.816;2024-02-26T11:46:33;62.09;41.58;74.50;;
82130;Laerm;75912;50.450;9.816;2024-02-26T11:48:59;61.58;38.68;76.43;;
82130;Laerm;75912;50.450;9.816;2024-02-26T11:51:26;59.91;38.27;72.18;;
82130;Laerm;75912;50.450;9.816;2024-02-26T11:53:52;59.65;40.67;71.62;;
82130;Laerm;75912;50.450;9.816;2024-02-26T11:58:44;63.86;39.54;84.39;;
82130;Laerm;75912;50.450;9.816;2024-02-26T12:03:56;61.82;38.02;76.83;;
82130;Laerm;75912;50.450;9.816;2024-02-26T12:06:21;62.09;38.66;74.54;;
82130;Laerm;75912;50.450;9.816;2024-02-26T12:08:47;63.32;38.07;77.11;;
82130;Laerm;75912;50.450;9.816;2024-02-26T12:11:15;59.50;38.89;70.73;;
82130;Laerm;75912;50.450;9.816;2024-02-26T12:13:41;62.19;37.86;77.70;;
82130;Laerm;75912;50.450;9.816;2024-02-26T12:16:07;61.96;38.42;75.36;;
82130;Laerm;75912;50.450;9.816;2024-02-26T12:18:32;62.06;38.48;73.44;;
82130;Laerm;75912;50.450;9.816;2024-02-26T12:21:02;59.88;38.14;74.46;;
82130;Laerm;75912;50.450;9.816;2024-02-26T12:23:28;58.56;38.03;71.00;;
82130;Laerm;75912;50.450;9.816;2024-02-26T12:26:00;62.91;38.62;78.45;;
82130;Laerm;75912;50.450;9.816;2024-02-26T12:28:29;62.60;38.40;75.32;;
82130;Laerm;75912;50.450;9.816;2024-02-26T12:30:55;57.02;37.66;75.33;;
82130;Laerm;75912;50.450;9.816;2024-02-26T12:33:20;61.89;38.85;79.38;;
82130;Laerm;75912;50.450;9.816;2024-02-26T12:35:46;59.03;38.69;70.17;;
82130;Laerm;75912;50.450;9.816;2024-02-26T12:38:14;59.96;37.92;70.94;;
82130;Laerm;75912;50.450;9.816;2024-02-26T12:40:39;61.40;39.35;73.44;;
82130;Laerm;75912;50.450;9.816;2024-02-26T12:43:05;63.90;40.95;74.40;;
82130;Laerm;75912;50.450;9.816;2024-02-26T12:45:31;59.55;39.11;73.41;;
82130;Laerm;75912;50.450;9.816;2024-02-26T12:47:56;60.46;39.07;72.55;;
82130;Laerm;75912;50.450;9.816;2024-02-26T12:50:22;59.81;38.26;71.79;;
82130;Laerm;75912;50.450;9.816;2024-02-26T12:52:47;58.83;37.94;72.01;;
82130;Laerm;75912;50.450;9.816;2024-02-26T12:55:19;57.29;37.79;70.19;;
82130;Laerm;75912;50.450;9.816;2024-02-26T12:57:45;62.57;40.07;73.38;;
82130;Laerm;75912;50.450;9.816;2024-02-26T13:00:12;60.11;38.52;73.06;;
82130;Laerm;75912;50.450;9.816;2024-02-26T13:02:39;60.93;46.36;70.98;;
82130;Laerm;75912;50.450;9.816;2024-02-26T13:05:05;63.28;47.10;74.94;;
82130;Laerm;75912;50.450;9.816;2024-02-26T13:07:32;62.76;48.22;76.37;;
82130;Laerm;75912;50.450;9.816;2024-02-26T13:09:58;61.80;46.68;75.61;;
82130;Laerm;75912;50.450;9.816;2024-02-26T13:12:23;57.82;37.95;68.91;;
82130;Laerm;75912;50.450;9.816;2024-02-26T13:14:58;61.00;38.30;72.55;;
82130;Laerm;75912;50.450;9.816;2024-02-26T13:17:23;60.09;39.33;71.37;;
82130;Laerm;75912;50.450;9.816;2024-02-26T13:19:50;62.65;39.19;78.32;;
82130;Laerm;75912;50.450;9.816;2024-02-26T13:22:15;59.30;38.64;72.65;;
82130;Laerm;75912;50.450;9.816;2024-02-26T13:24:41;61.68;38.59;76.65;;
82130;Laerm;75912;50.450;9.816;2024-02-26T13:27:07;62.49;38.93;76.03;;
82130;Laerm;75912;50.450;9.816;2024-02-26T13:29:32;59.55;39.66;71.56;;
82130;Laerm;75912;50.450;9.816;2024-02-26T13:31:58;63.60;39.72;73.83;;
82130;Laerm;75912;50.450;9.816;2024-02-26T13:34:24;59.97;38.66;70.50;;
82130;Laerm;75912;50.450;9.816;2024-02-26T13:36:50;62.20;38.93;74.68;;
82130;Laerm;75912;50.450;9.816;2024-02-26T13:39:25;61.59;38.64;73.67;;
82130;Laerm;75912;50.450;9.816;2024-02-26T13:41:51;64.21;40.30;75.67;;